sensor_id;sensor_type;location;lat;lon;timestamp;pressure;altitude;pressure_sealevel;temperature;humidity
84819;BME280;75053;51.080;13.712;2024-02-21T00:00:16;101050.44;;;15.92;47.01
84819;BME280;75053;51.080;13.712;2024-02-21T00:02:42;101047.13;;;15.68;46.92
84819;BME280;75053;51.080;13.712;2024-02-21T00:05:08;101050.25;;;15.51;47.38
84819;BME280;75053;51.080;13.712;2024-02-21T00:07:33;101041.78;;;16.22;46.26
84819;BME280;75053;51.080;13.712;2024-02-21T00:09:58;101042.78;;;15.99;46.31
84819;BME280;75053;51.080;13.712;2024-02-21T00:12:24;101043.72;;;16.09;46.31
84819;BME280;75053;51.080;13.712;2024-02-21T00:14:49;101028.94;;;16.29;46.21
84819;BME280;75053;51.080;13.712;2024-02-21T00:17:14;101043.06;;;15.75;46.83
84819;BME280;75053;51.080;13.712;2024-02-21T00:19:40;101036.09;;;15.96;46.72
84819;BME280;75053;51.080;13.712;2024-02-21T00:22:05;101025.84;;;15.93;46.89
84819;BME280;75053;51.080;13.712;2024-02-21T00:24:31;101016.34;;;16.12;46.05
84819;BME280;75053;51.080;13.712;2024-02-21T00:26:56;101026.25;;;16.19;46.04
84819;BME280;75053;51.080;13.712;2024-02-21T00:29:21;101028.56;;;16.44;45.50
84819;BME280;75053;51.080;13.712;2024-02-21T00:31:48;101020.13;;;16.19;45.71
84819;BME280;75053;51.080;13.712;2024-02-21T00:37:37;101011.84;;;15.81;46.75
84819;BME280;75053;51.080;13.712;2024-02-21T00:40:02;101008.59;;;15.99;46.30
84819;BME280;75053;51.080;13.712;2024-02-21T00:42:28;101003.31;;;15.99;46.34
84819;BME280;75053;51.080;13.712;2024-02-21T00:44:53;101014.88;;;15.55;47.22
84819;BME280;75053;51.080;13.712;2024-02-21T00:47:19;101007.78;;;15.88;46.95
84819;BME280;75053;51.080;13.712;2024-02-21T00:49:45;101009.13;;;15.72;46.99
84819;BME280;75053;51.080;13.712;2024-02-21T00:52:11;100997.75;;;15.82;46.70
84819;BME280;75053;51.080;13.712;2024-02-21T00:54:39;101002.22;;;16.13;45.93
84819;BME280;75053;51.080;13.712;2024-02-21T00:57:05;100994.69;;;16.08;45.99
84819;BME280;75053;51.080;13.712;2024-02-21T00:59:31;100988.59;;;16.08;46.42
84819;BME280;75053;51.080;13.712;2024-02-21T01:01:57;100988.06;;;15.83;46.47
84819;BME280;75053;51.080;13.712;2024-02-21T01:04:23;100983.44;;;15.64;46.56
84819;BME280;75053;51.080;13.712;2024-02-21T01:06:49;100983.25;;;15.98;46.62
84819;BME280;75053;51.080;13.712;2024-02-21T01:09:15;100976.88;;;15.59;47.17
84819;BME280;75053;51.080;13.712;2024-02-21T01:11:40;100979.63;;;16.10;46.06
84819;BME280;75053;51.080;13.712;2024-02-21T01:14:06;100974.44;;;15.78;46.77
84819;BME280;75053;51.080;13.712;2024-02-21T01:16:31;100976.06;;;16.00;46.12
84819;BME280;75053;51.080;13.712;2024-02-21T01:18:57;100967.78;;;16.05;46.04
84819;BME280;75053;51.080;13.712;2024-02-21T01:21:24;100964.84;;;15.88;46.19
84819;BME280;75053;51.080;13.712;2024-02-21T01:23:49;100964.69;;;15.69;46.81
84819;BME280;75053;51.080;13.712;2024-02-21T01:26:14;100959.16;;;16.14;45.97
84819;BME280;75053;51.080;13.712;2024-02-21T01:28:41;100950.97;;;15.54;46.91
84819;BME280;75053;51.080;13.712;2024-02-21T01:31:07;100960.88;;;15.62;46.89
84819;BME280;75053;51.080;13.712;2024-02-21T01:33:32;100943.19;;;15.53;47.33
84819;BME280;75053;51.080;13.712;2024-02-21T01:36:01;100939.31;;;15.68;47.03
84819;BME280;75053;51.080;13.712;2024-02-21T01:38:28;100941.03;;;15.58;46.88
84819;BME280;75053;51.080;13.712;2024-02-21T01:40:54;100926.97;;;15.15;47.71
84819;BME280;75053;51.080;13.712;2024-02-21T01:43:21;100930.91;;;15.20;47.83
84819;BME280;75053;51.080;13.712;2024-02-21T01:45:49;100916.84;;;15.75;46.77
84819;BME280;75053;51.080;13.712;2024-02-21T01:48:17;100918.81;;;15.29;47.19
84819;BME280;75053;51.080;13.712;2024-02-21T01:50:46;100905.31;;;15.55;47.07
84819;BME280;75053;51.080;13.712;2024-02-21T01:53:14;100910.91;;;15.62;47.05
84819;BME280;75053;51.080;13.712;2024-02-21T01:55:47;100912.81;;;16.22;45.78
84819;BME280;75053;51.080;13.712;2024-02-21T01:58:16;100907.63;;;15.80;46.27
84819;BME280;75053;51.080;13.712;2024-02-21T02:00:43;100911.97;;;15.70;46.71
84819;BME280;75053;51.080;13.712;2024-02-21T02:03:11;100913.94;;;15.89;46.58
84819;BME280;75053;51.080;13.712;2024-02-21T02:05:47;100897.31;;;15.57;47.21
84819;BME280;75053;51.080;13.712;2024-02-21T02:08:14;100903.50;;;15.98;46.19
84819;BME280;75053;51.080;13.712;2024-02-21T02:10:40;100901.28;;;15.83;46.29
84819;BME280;75053;51.080;13.712;2024-02-21T02:13:05;100897.84;;;16.02;46.05
84819;BME280;75053;51.080;13.712;2024-02-21T02:15:45;100894.66;;;15.99;46.19
84819;BME280;75053;51.080;13.712;2024-02-21T02:18:11;100898.72;;;16.23;46.06
84819;BME280;75053;51.080;13.712;2024-02-21T02:20:38;100897.13;;;16.00;46.22
84819;BME280;75053;51.080;13.712;2024-02-21T02:23:12;100891.44;;;16.16;46.06
84819;BME280;75053;51.080;13.712;2024-02-21T02:25:39;100892.16;;;15.98;46.43
84819;BME280;75053;51.080;13.712;2024-02-21T02:28:08;100885.28;;;15.75;47.05
84819;BME280;75053;51.080;13.712;2024-02-21T02:30:37;100887.50;;;15.59;47.04
84819;BME280;75053;51.080;13.712;2024-02-21T02:33:03;100887.63;;;15.89;46.57
84819;BME280;75053;51.080;13.712;2024-02-21T02:35:29;100887.38;;;15.60;47.29
84819;BME280;75053;51.080;13.712;2024-02-21T02:37:54;100885.69;;;15.91;46.84
84819;BME280;75053;51.080;13.712;2024-02-21T02:40:20;100881.16;;;16.44;45.67
84819;BME280;75053;51.080;13.712;2024-02-21T02:42:46;100881.03;;;15.94;46.50
84819;BME280;75053;51.080;13.712;2024-02-21T02:45:12;100889.53;;;15.55;47.34
84819;BME280;75053;51.080;13.712;2024-02-21T02:47:39;100882.03;;;15.82;46.98
84819;BME280;75053;51.080;13.712;2024-02-21T02:50:05;100876.63;;;15.63;47.11
84819;BME280;75053;51.080;13.712;2024-02-21T02:52:32;100876.84;;;16.23;46.05
84819;BME280;75053;51.080;13.712;2024-02-21T02:54:58;100875.09;;;16.12;45.99
84819;BME280;75053;51.080;13.712;2024-02-21T02:57:23;100873.63;;;15.99;45.98
84819;BME280;75053;51.080;13.712;2024-02-21T02:59:50;100877.84;;;15.26;47.77
84819;BME280;75053;51.080;13.712;2024-02-21T03:02:15;100861.91;;;15.92;46.80
84819;BME280;75053;51.080;13.712;2024-02-21T03:04:41;100860.38;;;15.90;46.58
84819;BME280;75053;51.080;13.712;2024-02-21T03:07:06;100870.56;;;16.03;46.41
84819;BME280;75053;51.080;13.712;2024-02-21T03:09:32;100852.13;;;15.63;47.20
84819;BME280;75053;51.080;13.712;2024-02-21T03:11:57;100848.81;;;16.01;46.46
84819;BME280;75053;51.080;13.712;2024-02-21T03:14:28;100855.88;;;15.81;46.65
84819;BME280;75053;51.080;13.712;2024-02-21T03:16:54;100851.34;;;15.83;46.58
84819;BME280;75053;51.080;13.712;2024-02-21T03:19:19;100861.06;;;15.92;46.41
84819;BME280;75053;51.080;13.712;2024-02-21T03:21:45;100842.56;;;16.54;45.52
84819;BME280;75053;51.080;13.712;2024-02-21T03:24:10;100853.00;;;16.65;45.33
84819;BME280;75053;51.080;13.712;2024-02-21T03:26:36;100852.47;;;16.41;45.58
84819;BME280;75053;51.080;13.712;2024-02-21T03:29:01;100854.72;;;16.46;45.50
84819;BME280;75053;51.080;13.712;2024-02-21T03:31:27;100847.91;;;16.23;45.77
84819;BME280;75053;51.080;13.712;2024-02-21T03:33:53;100857.00;;;16.39;45.65
84819;BME280;75053;51.080;13.712;2024-02-21T03:36:18;100849.84;;;16.41;45.41
84819;BME280;75053;51.080;13.712;2024-02-21T03:38:44;100851.47;;;16.01;46.41
84819;BME280;75053;51.080;13.712;2024-02-21T03:41:10;100848.47;;;15.75;46.69
84819;BME280;75053;51.080;13.712;2024-02-21T03:43:37;100847.22;;;15.90;46.52
84819;BME280;75053;51.080;13.712;2024-02-21T03:46:04;100846.50;;;15.67;46.84
84819;BME280;75053;51.080;13.712;2024-02-21T03:48:29;100834.66;;;16.13;45.99
84819;BME280;75053;51.080;13.712;2024-02-21T03:50:55;100835.56;;;15.83;46.35
84819;BME280;75053;51.080;13.712;2024-02-21T03:53:20;100834.91;;;16.10;46.15
84819;BME280;75053;51.080;13.712;2024-02-21T03:55:46;100826.84;;;16.43;45.41
84819;BME280;75053;51.080;13.712;2024-02-21T03:58:11;100835.47;;;16.55;44.78
84819;BME280;75053;51.080;13.712;2024-02-21T04:00:36;100827.03;;;16.91;44.34
84819;BME280;75053;51.080;13.712;2024-02-21T04:03:02;100827.91;;;17.10;43.76
84819;BME280;75053;51.080;13.712;2024-02-21T04:05:28;100830.53;;;17.40;43.48
84819;BME280;75053;51.080;13.712;2024-02-21T04:07:55;100829.13;;;17.55;42.97
84819;BME280;75053;51.080;13.712;2024-02-21T04:10:20;100826.38;;;17.47;43.08
84819;BME280;75053;51.080;13.712;2024-02-21T04:12:46;100829.34;;;17.33;43.12
84819;BME280;75053;51.080;13.712;2024-02-21T04:15:11;100827.69;;;17.23;43.22
84819;BME280;75053;51.080;13.712;2024-02-21T04:17:37;100829.41;;;17.52;42.99
84819;BME280;75053;51.080;13.712;2024-02-21T04:20:04;100827.50;;;17.73;42.67
84819;BME280;75053;51.080;13.712;2024-02-21T04:22:34;100826.09;;;17.88;42.75
84819;BME280;75053;51.080;13.712;2024-02-21T04:25:00;100826.38;;;17.57;42.78
84819;BME280;75053;51.080;13.712;2024-02-21T04:27:26;100813.19;;;17.66;42.66
84819;BME280;75053;51.080;13.712;2024-02-21T04:29:53;100826.38;;;17.66;43.02
84819;BME280;75053;51.080;13.712;2024-02-21T04:32:18;100821.66;;;17.60;43.03
84819;BME280;75053;51.080;13.712;2024-02-21T04:34:44;100822.53;;;16.72;43.97
84819;BME280;75053;51.080;13.712;2024-02-21T04:37:09;100824.19;;;16.73;44.30
84819;BME280;75053;51.080;13.712;2024-02-21T04:39:35;100825.63;;;16.77;44.26
84819;BME280;75053;51.080;13.712;2024-02-21T04:42:01;100817.03;;;16.75;44.24
84819;BME280;75053;51.080;13.712;2024-02-21T04:44:26;100813.50;;;16.35;44.71
84819;BME280;75053;51.080;13.712;2024-02-21T04:46:51;100823.47;;;17.01;43.65
84819;BME280;75053;51.080;13.712;2024-02-21T04:49:17;100815.28;;;17.04;43.53
84819;BME280;75053;51.080;13.712;2024-02-21T04:51:42;100809.34;;;17.21;43.28
84819;BME280;75053;51.080;13.712;2024-02-21T04:54:08;100816.00;;;17.16;43.29
84819;BME280;75053;51.080;13.712;2024-02-21T04:56:34;100812.38;;;16.98;43.74
84819;BME280;75053;51.080;13.712;2024-02-21T04:58:59;100806.25;;;16.97;44.00
84819;BME280;75053;51.080;13.712;2024-02-21T05:01:25;100811.91;;;16.83;43.86
84819;BME280;75053;51.080;13.712;2024-02-21T05:03:50;100807.78;;;16.90;43.60
84819;BME280;75053;51.080;13.712;2024-02-21T05:06:16;100806.47;;;16.45;44.77
84819;BME280;75053;51.080;13.712;2024-02-21T05:08:42;100800.22;;;16.16;45.38
84819;BME280;75053;51.080;13.712;2024-02-21T05:11:07;100795.75;;;16.37;45.20
84819;BME280;75053;51.080;13.712;2024-02-21T05:13:35;100794.09;;;16.36;44.80
84819;BME280;75053;51.080;13.712;2024-02-21T05:16:01;100798.09;;;16.10;45.65
84819;BME280;75053;51.080;13.712;2024-02-21T05:18:28;100798.34;;;16.07;46.02
84819;BME280;75053;51.080;13.712;2024-02-21T05:20:54;100799.59;;;16.33;45.89
84819;BME280;75053;51.080;13.712;2024-02-21T05:23:19;100791.66;;;16.44;45.76
84819;BME280;75053;51.080;13.712;2024-02-21T05:25:45;100795.00;;;15.65;47.58
84819;BME280;75053;51.080;13.712;2024-02-21T05:28:10;100789.19;;;16.02;47.04
84819;BME280;75053;51.080;13.712;2024-02-21T05:30:36;100794.94;;;16.16;46.52
84819;BME280;75053;51.080;13.712;2024-02-21T05:33:05;100799.75;;;16.11;46.82
84819;BME280;75053;51.080;13.712;2024-02-21T05:35:31;100790.78;;;15.42;47.86
84819;BME280;75053;51.080;13.712;2024-02-21T05:37:56;100784.19;;;15.99;46.75
84819;BME280;75053;51.080;13.712;2024-02-21T05:40:21;100781.34;;;15.91;47.05
84819;BME280;75053;51.080;13.712;2024-02-21T05:42:47;100787.66;;;15.48;47.47
84819;BME280;75053;51.080;13.712;2024-02-21T05:45:12;100780.28;;;15.42;48.26
84819;BME280;75053;51.080;13.712;2024-02-21T05:47:40;100780.13;;;15.12;48.81
84819;BME280;75053;51.080;13.712;2024-02-21T05:50:05;100773.28;;;15.31;48.25
84819;BME280;75053;51.080;13.712;2024-02-21T05:52:31;100768.22;;;15.71;47.84
84819;BME280;75053;51.080;13.712;2024-02-21T05:54:56;100771.75;;;15.81;47.63
84819;BME280;75053;51.080;13.712;2024-02-21T05:57:22;100771.84;;;15.79;47.79
84819;BME280;75053;51.080;13.712;2024-02-21T05:59:47;100761.34;;;15.79;47.60
84819;BME280;75053;51.080;13.712;2024-02-21T06:02:12;100767.75;;;15.23;48.71
84819;BME280;75053;51.080;13.712;2024-02-21T06:04:38;100765.63;;;15.60;48.48
84819;BME280;75053;51.080;13.712;2024-02-21T06:07:04;100762.34;;;15.47;48.74
84819;BME280;75053;51.080;13.712;2024-02-21T06:09:30;100750.84;;;16.09;47.59
84819;BME280;75053;51.080;13.712;2024-02-21T06:11:57;100749.09;;;15.69;48.57
84819;BME280;75053;51.080;13.712;2024-02-21T06:14:22;100741.19;;;15.89;48.30
84819;BME280;75053;51.080;13.712;2024-02-21T06:16:48;100745.81;;;15.76;48.33
84819;BME280;75053;51.080;13.712;2024-02-21T06:19:13;100743.63;;;15.81;47.99
84819;BME280;75053;51.080;13.712;2024-02-21T06:21:39;100738.88;;;16.25;47.78
84819;BME280;75053;51.080;13.712;2024-02-21T06:24:04;100734.03;;;16.51;46.68
84819;BME280;75053;51.080;13.712;2024-02-21T06:26:30;100733.06;;;16.42;46.79
84819;BME280;75053;51.080;13.712;2024-02-21T06:28:55;100740.19;;;16.70;46.20
84819;BME280;75053;51.080;13.712;2024-02-21T06:31:21;100731.09;;;16.93;45.88
84819;BME280;75053;51.080;13.712;2024-02-21T06:33:46;100733.03;;;16.91;45.77
84819;BME280;75053;51.080;13.712;2024-02-21T06:36:11;100721.34;;;16.65;45.74
84819;BME280;75053;51.080;13.712;2024-02-21T06:38:37;100720.75;;;16.52;46.88
84819;BME280;75053;51.080;13.712;2024-02-21T06:41:03;100718.91;;;16.92;45.70
84819;BME280;75053;51.080;13.712;2024-02-21T06:43:29;100731.13;;;16.44;46.61
84819;BME280;75053;51.080;13.712;2024-02-21T06:45:55;100734.31;;;16.48;46.73
84819;BME280;75053;51.080;13.712;2024-02-21T06:48:22;100724.13;;;16.73;46.20
84819;BME280;75053;51.080;13.712;2024-02-21T06:50:47;100727.09;;;16.89;45.86
84819;BME280;75053;51.080;13.712;2024-02-21T06:53:13;100731.09;;;16.93;45.86
84819;BME280;75053;51.080;13.712;2024-02-21T06:55:39;100735.00;;;16.89;45.83
84819;BME280;75053;51.080;13.712;2024-02-21T06:58:04;100739.28;;;17.09;45.80
84819;BME280;75053;51.080;13.712;2024-02-21T07:00:30;100736.88;;;16.68;46.29
84819;BME280;75053;51.080;13.712;2024-02-21T07:02:56;100742.44;;;16.75;46.32
84819;BME280;75053;51.080;13.712;2024-02-21T07:05:23;100741.09;;;16.99;45.76
84819;BME280;75053;51.080;13.712;2024-02-21T07:07:48;100732.22;;;17.00;45.83
84819;BME280;75053;51.080;13.712;2024-02-21T07:10:14;100742.78;;;17.00;45.27
84819;BME280;75053;51.080;13.712;2024-02-21T07:12:39;100730.28;;;17.12;45.27
84819;BME280;75053;51.080;13.712;2024-02-21T07:15:08;100740.53;;;16.96;45.32
84819;BME280;75053;51.080;13.712;2024-02-21T07:17:34;100749.84;;;16.51;46.52
84819;BME280;75053;51.080;13.712;2024-02-21T07:19:59;100742.56;;;16.73;46.46
84819;BME280;75053;51.080;13.712;2024-02-21T07:22:25;100742.16;;;16.78;45.92
84819;BME280;75053;51.080;13.712;2024-02-21T07:24:50;100745.41;;;17.00;45.88
84819;BME280;75053;51.080;13.712;2024-02-21T07:27:16;100741.16;;;17.37;45.15
84819;BME280;75053;51.080;13.712;2024-02-21T07:29:42;100748.94;;;17.48;45.12
84819;BME280;75053;51.080;13.712;2024-02-21T07:32:07;100748.88;;;17.29;44.88
84819;BME280;75053;51.080;13.712;2024-02-21T07:34:33;100757.63;;;17.20;45.21
84819;BME280;75053;51.080;13.712;2024-02-21T07:36:58;100748.88;;;17.29;45.33
84819;BME280;75053;51.080;13.712;2024-02-21T07:39:24;100747.69;;;16.75;46.19
84819;BME280;75053;51.080;13.712;2024-02-21T07:41:51;100738.13;;;16.74;45.97
84819;BME280;75053;51.080;13.712;2024-02-21T07:44:16;100724.47;;;17.27;45.44
84819;BME280;75053;51.080;13.712;2024-02-21T07:46:41;100723.66;;;17.65;44.48
84819;BME280;75053;51.080;13.712;2024-02-21T07:49:07;100728.09;;;17.26;45.11
84819;BME280;75053;51.080;13.712;2024-02-21T07:51:33;100740.25;;;17.08;45.38
84819;BME280;75053;51.080;13.712;2024-02-21T07:54:00;100730.22;;;16.74;46.02
84819;BME280;75053;51.080;13.712;2024-02-21T07:56:27;100722.53;;;17.29;45.08
84819;BME280;75053;51.080;13.712;2024-02-21T07:58:52;100729.28;;;16.84;45.94
84819;BME280;75053;51.080;13.712;2024-02-21T08:01:19;100724.78;;;17.43;44.97
84819;BME280;75053;51.080;13.712;2024-02-21T08:03:47;100728.16;;;18.01;44.19
84819;BME280;75053;51.080;13.712;2024-02-21T08:06:13;100740.19;;;17.48;44.58
84819;BME280;75053;51.080;13.712;2024-02-21T08:08:39;100717.00;;;17.61;44.29
84819;BME280;75053;51.080;13.712;2024-02-21T08:11:04;100725.47;;;17.45;44.45
84819;BME280;75053;51.080;13.712;2024-02-21T08:13:30;100726.13;;;16.90;45.41
84819;BME280;75053;51.080;13.712;2024-02-21T08:15:55;100726.44;;;17.63;44.65
84819;BME280;75053;51.080;13.712;2024-02-21T08:18:22;100728.34;;;17.80;44.01
84819;BME280;75053;51.080;13.712;2024-02-21T08:20:48;100730.44;;;17.67;44.13
84819;BME280;75053;51.080;13.712;2024-02-21T08:23:15;100733.66;;;17.42;44.39
84819;BME280;75053;51.080;13.712;2024-02-21T08:25:41;100731.13;;;17.31;44.80
84819;BME280;75053;51.080;13.712;2024-02-21T08:28:07;100729.75;;;17.27;44.94
84819;BME280;75053;51.080;13.712;2024-02-21T08:30:33;100728.91;;;17.74;44.34
84819;BME280;75053;51.080;13.712;2024-02-21T08:32:59;100720.72;;;18.23;43.32
84819;BME280;75053;51.080;13.712;2024-02-21T08:35:24;100715.56;;;17.85;43.64
84819;BME280;75053;51.080;13.712;2024-02-21T08:37:50;100710.34;;;17.57;44.39
84819;BME280;75053;51.080;13.712;2024-02-21T08:40:16;100713.16;;;17.36;44.80
84819;BME280;75053;51.080;13.712;2024-02-21T08:42:47;100716.09;;;16.84;45.76
84819;BME280;75053;51.080;13.712;2024-02-21T08:45:13;100714.94;;;16.58;46.38
84819;BME280;75053;51.080;13.712;2024-02-21T08:47:41;100721.44;;;16.24;46.69
84819;BME280;75053;51.080;13.712;2024-02-21T08:50:08;100722.75;;;16.09;47.61
84819;BME280;75053;51.080;13.712;2024-02-21T08:52:35;100701.44;;;17.01;45.60
84819;BME280;75053;51.080;13.712;2024-02-21T08:55:00;100711.41;;;16.88;45.69
84819;BME280;75053;51.080;13.712;2024-02-21T08:57:28;100703.50;;;16.88;45.53
84819;BME280;75053;51.080;13.712;2024-02-21T08:59:54;100703.69;;;17.24;45.11
84819;BME280;75053;51.080;13.712;2024-02-21T09:02:19;100689.38;;;17.55;44.39
84819;BME280;75053;51.080;13.712;2024-02-21T09:04:45;100701.44;;;16.91;45.60
84819;BME280;75053;51.080;13.712;2024-02-21T09:07:11;100692.88;;;17.37;44.97
84819;BME280;75053;51.080;13.712;2024-02-21T09:09:36;100698.66;;;17.02;45.17
84819;BME280;75053;51.080;13.712;2024-02-21T09:12:08;100702.28;;;17.11;45.22
84819;BME280;75053;51.080;13.712;2024-02-21T09:14:48;100702.72;;;17.44;44.79
84819;BME280;75053;51.080;13.712;2024-02-21T09:17:17;100702.59;;;17.36;45.00
84819;BME280;75053;51.080;13.712;2024-02-21T09:19:44;100695.78;;;17.43;44.59
84819;BME280;75053;51.080;13.712;2024-02-21T09:22:09;100699.25;;;17.53;44.66
84819;BME280;75053;51.080;13.712;2024-02-21T09:24:35;100702.00;;;17.33;45.24
84819;BME280;75053;51.080;13.712;2024-02-21T09:27:00;100698.81;;;17.29;44.96
84819;BME280;75053;51.080;13.712;2024-02-21T09:29:26;100707.28;;;17.23;45.42
84819;BME280;75053;51.080;13.712;2024-02-21T09:31:51;100705.06;;;17.19;45.47
84819;BME280;75053;51.080;13.712;2024-02-21T09:34:18;100714.75;;;16.99;45.61
84819;BME280;75053;51.080;13.712;2024-02-21T09:36:43;100713.09;;;17.55;44.85
84819;BME280;75053;51.080;13.712;2024-02-21T09:39:10;100714.22;;;17.62;44.35
84819;BME280;75053;51.080;13.712;2024-02-21T09:41:45;100722.13;;;17.43;44.81
84819;BME280;75053;51.080;13.712;2024-02-21T09:44:13;100717.69;;;17.72;43.98
84819;BME280;75053;51.080;13.712;2024-02-21T09:49:31;100714.50;;;17.50;44.27
84819;BME280;75053;51.080;13.712;2024-02-21T09:52:04;100716.69;;;17.26;45.02
84819;BME280;75053;51.080;13.712;2024-02-21T09:54:33;100712.25;;;17.07;45.11
84819;BME280;75053;51.080;13.712;2024-02-21T09:57:03;100706.88;;;17.47;44.58
84819;BME280;75053;51.080;13.712;2024-02-21T09:59:30;100713.78;;;17.19;44.65
84819;BME280;75053;51.080;13.712;2024-02-21T10:01:56;100707.84;;;17.08;44.83
84819;BME280;75053;51.080;13.712;2024-02-21T10:04:21;100715.81;;;16.68;46.07
84819;BME280;75053;51.080;13.712;2024-02-21T10:06:47;100714.75;;;17.18;44.98
84819;BME280;75053;51.080;13.712;2024-02-21T10:09:34;100711.91;;;16.72;45.90
84819;BME280;75053;51.080;13.712;2024-02-21T10:12:10;100701.47;;;17.48;44.72
84819;BME280;75053;51.080;13.712;2024-02-21T10:14:45;100698.00;;;18.13;43.54
84819;BME280;75053;51.080;13.712;2024-02-21T10:17:19;100706.09;;;17.92;43.61
84819;BME280;75053;51.080;13.712;2024-02-21T10:19:45;100708.06;;;17.81;43.58
84819;BME280;75053;51.080;13.712;2024-02-21T10:22:12;100708.34;;;17.87;43.88
84819;BME280;75053;51.080;13.712;2024-02-21T10:24:40;100702.13;;;18.15;43.14
84819;BME280;75053;51.080;13.712;2024-02-21T10:27:09;100703.16;;;18.41;42.52
84819;BME280;75053;51.080;13.712;2024-02-21T10:29:38;100698.88;;;17.94;43.58
84819;BME280;75053;51.080;13.712;2024-02-21T10:34:37;100711.97;;;18.59;42.68
84819;BME280;75053;51.080;13.712;2024-02-21T10:37:07;100700.09;;;18.00;43.46
84819;BME280;75053;51.080;13.712;2024-02-21T10:39:35;100700.75;;;18.11;43.06
84819;BME280;75053;51.080;13.712;2024-02-21T10:42:04;100693.94;;;17.72;43.80
84819;BME280;75053;51.080;13.712;2024-02-21T10:44:33;100685.22;;;18.08;43.40
84819;BME280;75053;51.080;13.712;2024-02-21T10:46:59;100682.16;;;18.13;42.71
84819;BME280;75053;51.080;13.712;2024-02-21T10:49:29;100670.97;;;17.82;43.53
84819;BME280;75053;51.080;13.712;2024-02-21T10:52:18;100677.47;;;17.51;43.56
84819;BME280;75053;51.080;13.712;2024-02-21T10:54:54;100675.63;;;17.61;43.47
84819;BME280;75053;51.080;13.712;2024-02-21T10:57:22;100681.47;;;17.55;43.80
84819;BME280;75053;51.080;13.712;2024-02-21T10:59:48;100677.22;;;17.35;44.02
84819;BME280;75053;51.080;13.712;2024-02-21T11:02:15;100663.03;;;17.17;44.29
84819;BME280;75053;51.080;13.712;2024-02-21T11:04:41;100663.72;;;16.91;44.89
84819;BME280;75053;51.080;13.712;2024-02-21T11:07:08;100667.31;;;16.90;44.76
84819;BME280;75053;51.080;13.712;2024-02-21T11:09:34;100667.16;;;16.72;45.13
84819;BME280;75053;51.080;13.712;2024-02-21T11:12:06;100674.25;;;16.81;45.30
84819;BME280;75053;51.080;13.712;2024-02-21T11:14:33;100662.03;;;16.90;45.29
84819;BME280;75053;51.080;13.712;2024-02-21T11:17:01;100654.16;;;16.80;45.64
84819;BME280;75053;51.080;13.712;2024-02-21T11:19:28;100652.59;;;16.68;45.72
84819;BME280;75053;51.080;13.712;2024-02-21T11:21:56;100641.81;;;17.47;44.71
84819;BME280;75053;51.080;13.712;2024-02-21T11:24:33;100644.50;;;17.74;44.21
84819;BME280;75053;51.080;13.712;2024-02-21T11:29:49;100625.47;;;16.77;45.55
84819;BME280;75053;51.080;13.712;2024-02-21T11:32:19;100611.84;;;17.48;44.76
84819;BME280;75053;51.080;13.712;2024-02-21T11:37:34;100606.19;;;17.70;44.42
84819;BME280;75053;51.080;13.712;2024-02-21T11:40:03;100594.69;;;17.98;43.19
84819;BME280;75053;51.080;13.712;2024-02-21T11:42:29;100594.81;;;18.06;43.77
84819;BME280;75053;51.080;13.712;2024-02-21T11:44:59;100592.16;;;18.06;43.31
84819;BME280;75053;51.080;13.712;2024-02-21T11:47:25;100597.22;;;17.90;43.63
84819;BME280;75053;51.080;13.712;2024-02-21T11:49:51;100588.50;;;18.17;43.11
84819;BME280;75053;51.080;13.712;2024-02-21T11:52:21;100589.31;;;18.17;42.67
84819;BME280;75053;51.080;13.712;2024-02-21T11:54:50;100582.72;;;18.04;43.16
84819;BME280;75053;51.080;13.712;2024-02-21T11:57:17;100578.03;;;17.98;43.58
84819;BME280;75053;51.080;13.712;2024-02-21T11:59:44;100579.66;;;18.08;43.71
84819;BME280;75053;51.080;13.712;2024-02-21T12:02:10;100566.97;;;17.94;44.02
84819;BME280;75053;51.080;13.712;2024-02-21T12:04:36;100561.50;;;17.96;43.69
84819;BME280;75053;51.080;13.712;2024-02-21T12:07:01;100553.50;;;18.15;43.49
84819;BME280;75053;51.080;13.712;2024-02-21T12:09:28;100554.13;;;17.99;43.36
84819;BME280;75053;51.080;13.712;2024-02-21T12:12:04;100536.72;;;18.68;42.62
84819;BME280;75053;51.080;13.712;2024-02-21T12:14:33;100529.81;;;18.49;42.58
84819;BME280;75053;51.080;13.712;2024-02-21T12:17:00;100531.44;;;19.11;42.03
84819;BME280;75053;51.080;13.712;2024-02-21T12:19:28;100524.06;;;18.71;42.50
84819;BME280;75053;51.080;13.712;2024-02-21T12:21:54;100515.91;;;19.67;40.60
84819;BME280;75053;51.080;13.712;2024-02-21T12:24:27;100518.59;;;19.75;40.56
84819;BME280;75053;51.080;13.712;2024-02-21T12:26:54;100509.38;;;19.95;40.49
84819;BME280;75053;51.080;13.712;2024-02-21T12:29:20;100502.97;;;19.56;40.45
84819;BME280;75053;51.080;13.712;2024-02-21T12:31:46;100497.72;;;19.72;40.42
84819;BME280;75053;51.080;13.712;2024-02-21T12:34:13;100481.75;;;19.81;40.41
84819;BME280;75053;51.080;13.712;2024-02-21T12:36:42;100485.34;;;20.22;39.46
84819;BME280;75053;51.080;13.712;2024-02-21T12:39:09;100468.81;;;20.44;39.09
84819;BME280;75053;51.080;13.712;2024-02-21T12:41:36;100463.22;;;19.89;39.62
84819;BME280;75053;51.080;13.712;2024-02-21T12:44:04;100459.19;;;20.11;39.15
84819;BME280;75053;51.080;13.712;2024-02-21T12:46:34;100462.50;;;20.29;39.21
84819;BME280;75053;51.080;13.712;2024-02-21T12:49:00;100448.69;;;21.13;37.99
84819;BME280;75053;51.080;13.712;2024-02-21T12:51:26;100446.09;;;22.12;36.68